createdAt,value
2022-10-14T00:02:19.096Z,100.00
2022-10-14T00:07:23.205Z,100.00
2022-10-14T00:12:26.964Z,100.00
2022-10-14T00:17:31.866Z,100.00
2022-10-14T00:22:35.302Z,100.00
2022-10-14T00:27:38.823Z,100.00
2022-10-14T00:32:48.310Z,100.00
2022-10-14T00:37:51.603Z,100.00
2022-10-14T00:42:55.690Z,100.00
2022-10-14T00:48:00.467Z,100.00
2022-10-14T00:53:05.041Z,100.00
2022-10-14T00:58:08.824Z,100.00
2022-10-14T01:03:21.932Z,100.00
2022-10-14T01:08:32.559Z,100.00
2022-10-14T01:13:38.225Z,100.00
2022-10-14T01:19:01.031Z,100.00
2022-10-14T01:24:36.019Z,100.00
2022-10-14T01:30:09.553Z,100.00
2022-10-14T01:35:24.501Z,100.00
2022-10-14T01:40:33.454Z,100.00
2022-10-14T01:45:40.338Z,100.00
2022-10-14T01:50:46.445Z,100.00
2022-10-14T01:55:53.163Z,100.00
2022-10-14T02:00:57.942Z,100.00
2022-10-14T02:06:07.698Z,100.00
2022-10-14T02:11:15.712Z,100.00
2022-10-14T02:16:35.259Z,100.00
2022-10-14T02:21:45.695Z,100.00
2022-10-14T02:26:50.902Z,100.00
2022-10-14T02:31:59.626Z,100.00
2022-10-14T02:37:03.864Z,100.00
2022-10-14T02:42:09.384Z,100.00
2022-10-14T02:47:14.454Z,100.00
2022-10-14T02:52:18.071Z,100.00
2022-10-14T02:57:22.475Z,100.00
2022-10-14T03:02:27.695Z,100.00
2022-10-14T03:07:34.275Z,100.00
2022-10-14T03:12:41.568Z,100.00
2022-10-14T03:17:54.305Z,100.00
2022-10-14T03:23:02.706Z,100.00
2022-10-14T03:28:10.175Z,100.00
2022-10-14T03:33:26.344Z,100.00
2022-10-14T03:38:43.096Z,100.00
2022-10-14T03:43:55.042Z,100.00
2022-10-14T03:49:00.345Z,100.00
2022-10-14T03:54:04.218Z,100.00
2022-10-14T03:59:09.211Z,100.00
2022-10-14T04:04:16.517Z,100.00
2022-10-14T04:09:22.036Z,100.00
2022-10-14T04:14:26.601Z,100.00
2022-10-14T04:19:32.348Z,100.00
2022-10-14T04:24:38.397Z,100.00
2022-10-14T04:29:42.257Z,100.00
2022-10-14T04:34:55.589Z,100.00
2022-10-14T04:40:03.442Z,100.00
2022-10-14T04:45:09.085Z,100.00
2022-10-14T04:50:24.022Z,100.00
2022-10-14T04:55:46.519Z,100.00
2022-10-14T05:00:50.108Z,100.00
2022-10-14T05:06:04.701Z,100.00
2022-10-14T05:11:08.184Z,100.00
2022-10-14T05:16:23.565Z,100.00
2022-10-14T05:21:28.306Z,100.00
2022-10-14T05:26:45.192Z,100.00
2022-10-14T05:31:50.409Z,100.00
2022-10-14T05:37:10.880Z,100.00
2022-10-14T05:42:21.780Z,100.00
2022-10-14T05:47:28.485Z,100.00
2022-10-14T05:52:41.065Z,100.00
2022-10-14T05:57:56.859Z,100.00
2022-10-14T06:03:04.767Z,100.00
2022-10-14T06:08:10.042Z,100.00
2022-10-14T06:13:15.498Z,100.00
2022-10-14T06:18:22.373Z,100.00
2022-10-14T06:23:27.643Z,100.00
2022-10-14T06:28:31.074Z,100.00
2022-10-14T06:33:34.857Z,100.00
2022-10-14T06:38:39.654Z,100.00
2022-10-14T06:43:42.967Z,100.00
2022-10-14T06:48:50.132Z,100.00
2022-10-14T06:53:55.259Z,100.00
2022-10-14T06:58:58.572Z,100.00
2022-10-14T07:04:02.195Z,100.00
2022-10-14T07:09:07.232Z,100.00
2022-10-14T07:14:10.927Z,100.00
2022-10-14T07:19:14.637Z,100.00
2022-10-14T07:24:19.436Z,100.00
2022-10-14T07:29:22.826Z,100.00
2022-10-14T07:34:26.425Z,100.00
2022-10-14T07:39:31.191Z,100.00
2022-10-14T07:44:34.595Z,100.00
2022-10-14T07:49:39.156Z,100.00
2022-10-14T07:54:44.061Z,100.00
2022-10-14T07:59:48.921Z,100.00
2022-10-14T08:05:04.094Z,100.00
2022-10-14T08:10:19.541Z,100.00
2022-10-14T08:15:23.711Z,100.00
2022-10-14T08:20:27.760Z,100.00
2022-10-14T08:25:33.881Z,100.00
2022-10-14T08:30:38.100Z,100.00
2022-10-14T08:35:42.097Z,100.00
2022-10-14T08:41:02.819Z,100.00
2022-10-14T08:46:19.837Z,100.00
2022-10-14T08:51:23.776Z,100.00
2022-10-14T08:56:29.609Z,100.00
2022-10-14T09:01:36.324Z,100.00
2022-10-14T09:06:43.727Z,100.00
2022-10-14T09:11:54.490Z,100.00
2022-10-14T09:17:03.435Z,100.00
2022-10-14T09:22:14.305Z,100.00
2022-10-14T09:27:22.494Z,100.00
2022-10-14T09:32:31.309Z,100.00
2022-10-14T09:37:37.981Z,100.00
2022-10-14T09:42:51.715Z,100.00
2022-10-14T09:48:00.125Z,100.00
2022-10-14T09:53:10.745Z,100.00
2022-10-14T09:58:20.786Z,99.11
2022-10-14T10:03:30.006Z,98.63
2022-10-14T10:08:34.969Z,99.18
2022-10-14T10:13:45.846Z,98.57
2022-10-14T10:18:50.479Z,97.33
2022-10-14T10:23:58.721Z,97.04
2022-10-14T10:29:06.667Z,97.39
2022-10-14T10:34:44.146Z,99.52
2022-10-14T10:40:03.487Z,99.32
2022-10-14T10:45:17.420Z,98.74
2022-10-14T10:50:40.282Z,98.35
2022-10-14T10:55:55.841Z,100.00
2022-10-14T11:01:12.537Z,100.00
2022-10-14T11:06:43.633Z,95.46
2022-10-14T11:12:08.680Z,93.33
2022-10-14T11:17:27.890Z,92.38
2022-10-14T11:22:52.628Z,93.62
2022-10-14T11:28:03.547Z,92.21
2022-10-14T11:33:21.072Z,93.64
2022-10-14T11:38:40.042Z,90.98
2022-10-14T11:43:55.015Z,94.99
2022-10-14T11:49:06.209Z,95.27
2022-10-14T11:54:16.460Z,93.03
2022-10-14T11:59:32.527Z,96.44
2022-10-14T12:04:46.394Z,96.30
2022-10-14T12:09:59.089Z,97.60
2022-10-14T12:15:09.165Z,96.42
2022-10-14T12:20:27.339Z,95.76
2022-10-14T12:25:40.659Z,95.49
2022-10-14T12:30:44.587Z,95.65
2022-10-14T12:36:01.048Z,95.02
2022-10-14T12:41:41.713Z,92.93
2022-10-14T12:46:46.296Z,91.89
2022-10-14T12:51:56.009Z,91.57
2022-10-14T12:57:03.148Z,92.19
2022-10-14T13:02:23.880Z,92.49
2022-10-14T13:07:41.449Z,91.15
2022-10-14T13:12:45.504Z,90.22
2022-10-14T13:17:49.261Z,93.90
2022-10-14T13:22:54.444Z,94.58
2022-10-14T13:28:16.608Z,97.65
2022-10-14T13:33:27.582Z,96.07
2022-10-14T13:38:34.793Z,98.06
2022-10-14T13:43:42.252Z,100.00
2022-10-14T13:48:49.442Z,99.80
2022-10-14T13:53:56.670Z,99.43
2022-10-14T13:59:11.736Z,100.00
2022-10-14T14:04:28.298Z,99.41
2022-10-14T14:09:34.769Z,98.01
2022-10-14T14:14:41.438Z,96.83
2022-10-14T14:19:47.346Z,96.46
2022-10-14T14:24:55.251Z,96.22
2022-10-14T14:29:58.756Z,98.55
2022-10-14T14:35:05.424Z,99.77
2022-10-14T14:40:17.880Z,100.00
2022-10-14T14:45:25.509Z,100.00
2022-10-14T14:50:33.816Z,100.00
2022-10-14T14:55:43.127Z,100.00
2022-10-14T15:00:47.527Z,100.00
2022-10-14T15:05:54.660Z,100.00
2022-10-14T15:11:00.797Z,100.00
2022-10-14T15:16:04.323Z,100.00
2022-10-14T15:21:16.241Z,100.00
2022-10-14T15:26:26.597Z,100.00
2022-10-14T15:31:30.172Z,100.00
2022-10-14T15:36:35.988Z,100.00
2022-10-14T15:41:42.664Z,100.00
2022-10-14T15:47:04.941Z,100.00
2022-10-14T15:52:14.430Z,100.00
2022-10-14T15:57:19.160Z,100.00
2022-10-14T16:02:32.725Z,100.00
2022-10-14T16:07:36.118Z,100.00
2022-10-14T16:12:40.859Z,100.00
2022-10-14T16:17:46.444Z,100.00
2022-10-14T16:22:52.053Z,100.00
2022-10-14T16:27:56.790Z,100.00
2022-10-14T16:33:00.388Z,100.00
2022-10-14T16:38:03.752Z,100.00
2022-10-14T16:43:08.370Z,100.00
2022-10-14T16:48:11.809Z,100.00
2022-10-14T16:53:32.527Z,100.00
2022-10-14T16:58:37.221Z,100.00
2022-10-14T17:03:40.678Z,100.00
2022-10-14T17:08:46.195Z,100.00
2022-10-14T17:13:55.830Z,100.00
2022-10-14T17:19:00.512Z,100.00
2022-10-14T17:24:03.861Z,100.00
2022-10-14T17:29:08.526Z,100.00
2022-10-14T17:34:11.824Z,100.00
2022-10-14T17:39:24.224Z,100.00
2022-10-14T17:44:33.950Z,100.00
2022-10-14T17:49:37.496Z,100.00
2022-10-14T17:54:40.913Z,100.00
2022-10-14T17:59:45.927Z,100.00
2022-10-14T18:04:51.113Z,100.00
2022-10-14T18:09:54.405Z,100.00
2022-10-14T18:14:59.303Z,100.00
2022-10-14T18:20:05.465Z,100.00
2022-10-14T18:25:12.755Z,100.00
2022-10-14T18:30:20.186Z,100.00
2022-10-14T18:35:23.678Z,100.00
2022-10-14T18:40:27.263Z,100.00
2022-10-14T18:45:35.029Z,100.00
2022-10-14T18:50:38.386Z,100.00
2022-10-14T18:55:42.411Z,100.00
2022-10-14T19:00:47.347Z,100.00
2022-10-14T19:05:51.463Z,100.00
2022-10-14T19:11:03.184Z,100.00
2022-10-14T19:16:12.498Z,100.00
2022-10-14T19:21:19.741Z,100.00
2022-10-14T19:26:25.311Z,100.00
2022-10-14T19:31:32.122Z,100.00
2022-10-14T19:36:41.938Z,100.00
2022-10-14T19:41:47.442Z,100.00
2022-10-14T19:46:52.442Z,100.00
2022-10-14T19:51:59.199Z,100.00
2022-10-14T19:57:05.631Z,100.00
2022-10-14T20:02:11.303Z,100.00
2022-10-14T20:07:15.978Z,100.00
2022-10-14T20:12:24.867Z,100.00
2022-10-14T20:17:29.798Z,100.00
2022-10-14T20:22:33.385Z,100.00
2022-10-14T20:27:36.935Z,100.00
2022-10-14T20:32:42.254Z,100.00
2022-10-14T20:37:45.676Z,100.00
2022-10-14T20:42:48.993Z,100.00
2022-10-14T20:47:54.161Z,100.00
2022-10-14T20:52:59.505Z,100.00
2022-10-14T20:58:02.928Z,100.00
2022-10-14T21:03:07.788Z,100.00
2022-10-14T21:08:11.105Z,100.00
2022-10-14T21:13:14.351Z,100.00
2022-10-14T21:18:19.019Z,100.00
2022-10-14T21:23:22.409Z,100.00
2022-10-14T21:28:25.819Z,100.00
2022-10-14T21:33:30.507Z,100.00
2022-10-14T21:38:35.460Z,100.00
2022-10-14T21:43:39.467Z,100.00
2022-10-14T21:48:45.843Z,100.00
2022-10-14T21:53:49.298Z,100.00
2022-10-14T21:58:53.258Z,100.00
2022-10-14T22:03:59.846Z,100.00
2022-10-14T22:09:06.028Z,100.00
2022-10-14T22:14:13.329Z,100.00
2022-10-14T22:19:18.084Z,100.00
2022-10-14T22:24:21.452Z,100.00
2022-10-14T22:29:24.804Z,100.00
2022-10-14T22:34:29.834Z,100.00
2022-10-14T22:39:33.462Z,100.00
2022-10-14T22:44:37.104Z,100.00
2022-10-14T22:49:41.792Z,100.00
2022-10-14T22:54:45.348Z,100.00
2022-10-14T22:59:49.242Z,100.00
2022-10-14T23:04:54.230Z,100.00
2022-10-14T23:09:58.014Z,100.00
2022-10-14T23:15:01.818Z,100.00
2022-10-14T23:20:07.689Z,100.00
2022-10-14T23:25:12.623Z,100.00
2022-10-14T23:30:15.911Z,100.00
2022-10-14T23:35:20.636Z,100.00
2022-10-14T23:40:24.093Z,100.00
2022-10-14T23:45:27.341Z,100.00
2022-10-14T23:50:32.072Z,100.00
2022-10-14T23:55:35.331Z,100.00
